Clint, Texas
Current Conditions -  °F | °C
As of 8:45 PM on Tuesday 25 Nov 2014 (Local Time) from MMCS Reporting Station
Clear Clear  
Wind Chill: 37°   Ceiling: Unl
Heat Index: 43°   Visibility: 10mi
Dew Point: 19°   Wind: 9mph
Humidity: 39%   Direction: 200°SSW
Pressure: 30.24"   Gusts: NA
Location:  31.59°N, 106.22°W
Report Text: MMCS 260345Z 20008KT 10SM SKC 06/M07 A3024
Loading
Personal Weather Stations






























Interactive Weather Map New forecast layout! Learn more

10-Day Weather Forecast

Advertisements
Track Severe Weather on mobile